sensor_id;sensor_type;location;lat;lon;timestamp;P1;durP1;ratioP1;P2;durP2;ratioP2
13879;SDS011;7010;48.200;16.332;2023-01-10T00:02:03;4.03;;;1.80;;
13879;SDS011;7010;48.200;16.332;2023-01-10T00:04:31;1.67;;;1.58;;
13879;SDS011;7010;48.200;16.332;2023-01-10T00:07:02;1.27;;;1.10;;
13879;SDS011;7010;48.200;16.332;2023-01-10T00:09:30;3.15;;;1.88;;
13879;SDS011;7010;48.200;16.332;2023-01-10T00:11:58;3.50;;;1.50;;
13879;SDS011;7010;48.200;16.332;2023-01-10T00:14:43;1.77;;;1.30;;
13879;SDS011;7010;48.200;16.332;2023-01-10T00:17:12;1.20;;;1.20;;
13879;SDS011;7010;48.200;16.332;2023-01-10T00:19:40;1.05;;;0.95;;
13879;SDS011;7010;48.200;16.332;2023-01-10T00:22:10;1.70;;;1.60;;
13879;SDS011;7010;48.200;16.332;2023-01-10T00:24:44;1.40;;;1.30;;
13879;SDS011;7010;48.200;16.332;2023-01-10T00:27:13;1.75;;;1.30;;
13879;SDS011;7010;48.200;16.332;2023-01-10T00:29:46;1.30;;;1.20;;
13879;SDS011;7010;48.200;16.332;2023-01-10T00:32:17;2.25;;;1.27;;
13879;SDS011;7010;48.200;16.332;2023-01-10T00:34:46;1.20;;;1.10;;
13879;SDS011;7010;48.200;16.332;2023-01-10T00:37:16;1.10;;;1.10;;
13879;SDS011;7010;48.200;16.332;2023-01-10T00:39:45;1.65;;;1.52;;
13879;SDS011;7010;48.200;16.332;2023-01-10T00:42:13;1.52;;;1.42;;
13879;SDS011;7010;48.200;16.332;2023-01-10T00:44:58;1.27;;;1.05;;
13879;SDS011;7010;48.200;16.332;2023-01-10T00:47:27;15.98;;;1.33;;
13879;SDS011;7010;48.200;16.332;2023-01-10T00:49:55;2.50;;;1.65;;
13879;SDS011;7010;48.200;16.332;2023-01-10T00:52:25;1.58;;;1.48;;
13879;SDS011;7010;48.200;16.332;2023-01-10T00:54:53;1.58;;;1.42;;
13879;SDS011;7010;48.200;16.332;2023-01-10T00:57:21;3.97;;;2.03;;
13879;SDS011;7010;48.200;16.332;2023-01-10T00:59:50;1.35;;;1.02;;
13879;SDS011;7010;48.200;16.332;2023-01-10T01:02:18;1.73;;;1.17;;
13879;SDS011;7010;48.200;16.332;2023-01-10T01:04:46;1.55;;;1.15;;
13879;SDS011;7010;48.200;16.332;2023-01-10T01:07:14;1.30;;;1.25;;
13879;SDS011;7010;48.200;16.332;2023-01-10T01:09:44;1.08;;;1.08;;
13879;SDS011;7010;48.200;16.332;2023-01-10T01:12:30;1.60;;;1.30;;
13879;SDS011;7010;48.200;16.332;2023-01-10T01:14:59;1.40;;;1.30;;
13879;SDS011;7010;48.200;16.332;2023-01-10T01:17:27;1.45;;;1.35;;
13879;SDS011;7010;48.200;16.332;2023-01-10T01:19:55;1.48;;;1.30;;
13879;SDS011;7010;48.200;16.332;2023-01-10T01:22:23;1.45;;;1.35;;
13879;SDS011;7010;48.200;16.332;2023-01-10T01:24:53;2.67;;;1.30;;
13879;SDS011;7010;48.200;16.332;2023-01-10T01:27:22;1.50;;;1.38;;
13879;SDS011;7010;48.200;16.332;2023-01-10T01:29:50;1.33;;;1.23;;
13879;SDS011;7010;48.200;16.332;2023-01-10T01:32:18;1.50;;;1.40;;
13879;SDS011;7010;48.200;16.332;2023-01-10T01:34:47;1.77;;;1.63;;
13879;SDS011;7010;48.200;16.332;2023-01-10T01:37:15;1.00;;;1.00;;
13879;SDS011;7010;48.200;16.332;2023-01-10T01:39:45;1.25;;;1.17;;
13879;SDS011;7010;48.200;16.332;2023-01-10T01:42:20;2.45;;;1.50;;
13879;SDS011;7010;48.200;16.332;2023-01-10T01:47:58;2.33;;;1.65;;
13879;SDS011;7010;48.200;16.332;2023-01-10T01:50:31;1.52;;;1.42;;
13879;SDS011;7010;48.200;16.332;2023-01-10T01:53:02;1.67;;;1.50;;
13879;SDS011;7010;48.200;16.332;2023-01-10T01:55:36;4.72;;;1.77;;
13879;SDS011;7010;48.200;16.332;2023-01-10T01:58:08;1.58;;;1.23;;
13879;SDS011;7010;48.200;16.332;2023-01-10T02:00:40;1.50;;;1.30;;
13879;SDS011;7010;48.200;16.332;2023-01-10T02:03:08;1.33;;;1.30;;
13879;SDS011;7010;48.200;16.332;2023-01-10T02:05:38;1.70;;;1.35;;
13879;SDS011;7010;48.200;16.332;2023-01-10T02:08:07;1.35;;;1.25;;
13879;SDS011;7010;48.200;16.332;2023-01-10T02:10:37;1.20;;;1.10;;
13879;SDS011;7010;48.200;16.332;2023-01-10T02:13:14;1.02;;;1.02;;
13879;SDS011;7010;48.200;16.332;2023-01-10T02:15:44;1.23;;;1.13;;
13879;SDS011;7010;48.200;16.332;2023-01-10T02:18:13;1.35;;;1.25;;
13879;SDS011;7010;48.200;16.332;2023-01-10T02:20:44;1.10;;;1.10;;
13879;SDS011;7010;48.200;16.332;2023-01-10T02:26:47;1.17;;;1.13;;
13879;SDS011;7010;48.200;16.332;2023-01-10T02:33:03;1.00;;;1.00;;
13879;SDS011;7010;48.200;16.332;2023-01-10T02:35:44;1.42;;;1.20;;
13879;SDS011;7010;48.200;16.332;2023-01-10T02:38:28;1.75;;;1.27;;
13879;SDS011;7010;48.200;16.332;2023-01-10T02:41:05;2.83;;;1.83;;
13879;SDS011;7010;48.200;16.332;2023-01-10T02:43:42;1.23;;;1.13;;
13879;SDS011;7010;48.200;16.332;2023-01-10T02:46:15;1.58;;;1.05;;
13879;SDS011;7010;48.200;16.332;2023-01-10T02:48:52;1.50;;;0.90;;
13879;SDS011;7010;48.200;16.332;2023-01-10T02:51:21;1.05;;;1.00;;
13879;SDS011;7010;48.200;16.332;2023-01-10T02:53:53;1.65;;;1.40;;
13879;SDS011;7010;48.200;16.332;2023-01-10T02:56:37;1.48;;;1.38;;
13879;SDS011;7010;48.200;16.332;2023-01-10T02:59:41;1.35;;;1.23;;
13879;SDS011;7010;48.200;16.332;2023-01-10T03:02:31;1.13;;;1.02;;
13879;SDS011;7010;48.200;16.332;2023-01-10T03:05:12;1.35;;;1.20;;
13879;SDS011;7010;48.200;16.332;2023-01-10T03:07:52;0.90;;;0.80;;
13879;SDS011;7010;48.200;16.332;2023-01-10T03:10:27;1.42;;;1.33;;
13879;SDS011;7010;48.200;16.332;2023-01-10T03:13:00;1.15;;;1.10;;
13879;SDS011;7010;48.200;16.332;2023-01-10T03:15:31;1.17;;;1.17;;
13879;SDS011;7010;48.200;16.332;2023-01-10T03:18:04;1.17;;;1.10;;
13879;SDS011;7010;48.200;16.332;2023-01-10T03:20:38;1.65;;;1.25;;
13879;SDS011;7010;48.200;16.332;2023-01-10T03:23:11;1.00;;;1.00;;
13879;SDS011;7010;48.200;16.332;2023-01-10T03:25:43;1.15;;;1.08;;
13879;SDS011;7010;48.200;16.332;2023-01-10T03:28:13;1.17;;;1.13;;
13879;SDS011;7010;48.200;16.332;2023-01-10T03:30:47;3.05;;;1.40;;
13879;SDS011;7010;48.200;16.332;2023-01-10T03:33:19;1.08;;;1.05;;
13879;SDS011;7010;48.200;16.332;2023-01-10T03:35:55;1.20;;;1.08;;
13879;SDS011;7010;48.200;16.332;2023-01-10T03:38:34;1.23;;;1.08;;
13879;SDS011;7010;48.200;16.332;2023-01-10T03:41:10;1.15;;;0.90;;
13879;SDS011;7010;48.200;16.332;2023-01-10T03:43:42;4.60;;;1.40;;
13879;SDS011;7010;48.200;16.332;2023-01-10T03:46:35;0.93;;;0.93;;
13879;SDS011;7010;48.200;16.332;2023-01-10T03:49:07;2.30;;;1.13;;
13879;SDS011;7010;48.200;16.332;2023-01-10T03:51:39;1.38;;;1.27;;
13879;SDS011;7010;48.200;16.332;2023-01-10T03:54:08;1.80;;;1.27;;
13879;SDS011;7010;48.200;16.332;2023-01-10T03:56:43;1.35;;;1.27;;
13879;SDS011;7010;48.200;16.332;2023-01-10T03:59:12;1.55;;;1.35;;
13879;SDS011;7010;48.200;16.332;2023-01-10T04:01:40;1.38;;;1.20;;
13879;SDS011;7010;48.200;16.332;2023-01-10T04:04:09;1.50;;;1.40;;
13879;SDS011;7010;48.200;16.332;2023-01-10T04:06:39;1.20;;;1.13;;
13879;SDS011;7010;48.200;16.332;2023-01-10T04:09:08;1.50;;;1.40;;
13879;SDS011;7010;48.200;16.332;2023-01-10T04:11:37;1.30;;;1.20;;
13879;SDS011;7010;48.200;16.332;2023-01-10T04:14:05;1.48;;;1.27;;
13879;SDS011;7010;48.200;16.332;2023-01-10T04:16:33;0.90;;;0.90;;
13879;SDS011;7010;48.200;16.332;2023-01-10T04:19:01;1.63;;;1.27;;
13879;SDS011;7010;48.200;16.332;2023-01-10T04:21:30;1.10;;;1.10;;
13879;SDS011;7010;48.200;16.332;2023-01-10T04:24:00;1.40;;;1.30;;
13879;SDS011;7010;48.200;16.332;2023-01-10T04:26:28;1.08;;;1.08;;
13879;SDS011;7010;48.200;16.332;2023-01-10T04:28:56;2.30;;;1.65;;
13879;SDS011;7010;48.200;16.332;2023-01-10T04:31:24;1.60;;;1.50;;
13879;SDS011;7010;48.200;16.332;2023-01-10T04:33:53;1.30;;;1.23;;
13879;SDS011;7010;48.200;16.332;2023-01-10T04:36:21;1.45;;;1.30;;
13879;SDS011;7010;48.200;16.332;2023-01-10T04:38:49;1.10;;;1.02;;
13879;SDS011;7010;48.200;16.332;2023-01-10T04:41:19;1.40;;;1.30;;
13879;SDS011;7010;48.200;16.332;2023-01-10T04:43:47;1.48;;;1.38;;
13879;SDS011;7010;48.200;16.332;2023-01-10T04:46:16;1.30;;;1.20;;
13879;SDS011;7010;48.200;16.332;2023-01-10T04:48:44;1.85;;;1.67;;
13879;SDS011;7010;48.200;16.332;2023-01-10T04:51:12;1.55;;;1.45;;
13879;SDS011;7010;48.200;16.332;2023-01-10T04:53:41;1.40;;;1.30;;
13879;SDS011;7010;48.200;16.332;2023-01-10T04:56:12;2.13;;;1.92;;
13879;SDS011;7010;48.200;16.332;2023-01-10T04:58:44;1.35;;;1.30;;
13879;SDS011;7010;48.200;16.332;2023-01-10T05:01:14;1.52;;;1.27;;
13879;SDS011;7010;48.200;16.332;2023-01-10T05:03:45;2.70;;;1.83;;
13879;SDS011;7010;48.200;16.332;2023-01-10T05:06:14;1.77;;;1.67;;
13879;SDS011;7010;48.200;16.332;2023-01-10T05:08:43;1.65;;;1.55;;
13879;SDS011;7010;48.200;16.332;2023-01-10T05:11:12;7.32;;;1.90;;
13879;SDS011;7010;48.200;16.332;2023-01-10T05:13:40;2.53;;;1.90;;
13879;SDS011;7010;48.200;16.332;2023-01-10T05:16:10;1.85;;;1.52;;
13879;SDS011;7010;48.200;16.332;2023-01-10T05:18:38;1.58;;;1.48;;
13879;SDS011;7010;48.200;16.332;2023-01-10T05:21:07;1.30;;;1.20;;
13879;SDS011;7010;48.200;16.332;2023-01-10T05:23:37;6.18;;;1.90;;
13879;SDS011;7010;48.200;16.332;2023-01-10T05:26:07;1.92;;;1.48;;
13879;SDS011;7010;48.200;16.332;2023-01-10T05:28:36;1.77;;;1.67;;
13879;SDS011;7010;48.200;16.332;2023-01-10T05:31:05;3.17;;;1.85;;
13879;SDS011;7010;48.200;16.332;2023-01-10T05:33:35;1.40;;;1.30;;
13879;SDS011;7010;48.200;16.332;2023-01-10T05:36:04;1.60;;;1.50;;
13879;SDS011;7010;48.200;16.332;2023-01-10T05:38:34;2.08;;;1.45;;
13879;SDS011;7010;48.200;16.332;2023-01-10T05:41:02;1.75;;;1.42;;
13879;SDS011;7010;48.200;16.332;2023-01-10T05:43:30;1.02;;;1.02;;
13879;SDS011;7010;48.200;16.332;2023-01-10T05:45:59;1.70;;;1.55;;
13879;SDS011;7010;48.200;16.332;2023-01-10T05:48:27;1.65;;;1.55;;
13879;SDS011;7010;48.200;16.332;2023-01-10T05:50:57;1.50;;;1.40;;
13879;SDS011;7010;48.200;16.332;2023-01-10T05:53:25;1.10;;;1.10;;
13879;SDS011;7010;48.200;16.332;2023-01-10T05:55:54;1.75;;;1.65;;
13879;SDS011;7010;48.200;16.332;2023-01-10T05:58:23;1.65;;;1.55;;
13879;SDS011;7010;48.200;16.332;2023-01-10T06:00:52;2.35;;;1.50;;
13879;SDS011;7010;48.200;16.332;2023-01-10T06:03:21;0.95;;;0.95;;
13879;SDS011;7010;48.200;16.332;2023-01-10T06:05:52;1.63;;;1.42;;
13879;SDS011;7010;48.200;16.332;2023-01-10T06:08:22;1.75;;;1.65;;
13879;SDS011;7010;48.200;16.332;2023-01-10T06:10:51;1.40;;;1.30;;
13879;SDS011;7010;48.200;16.332;2023-01-10T06:13:19;3.47;;;1.20;;
13879;SDS011;7010;48.200;16.332;2023-01-10T06:15:47;2.03;;;1.63;;
13879;SDS011;7010;48.200;16.332;2023-01-10T06:18:15;1.83;;;1.73;;
13879;SDS011;7010;48.200;16.332;2023-01-10T06:20:44;2.15;;;2.03;;
13879;SDS011;7010;48.200;16.332;2023-01-10T06:23:12;1.67;;;1.58;;
13879;SDS011;7010;48.200;16.332;2023-01-10T06:25:42;1.50;;;1.42;;
13879;SDS011;7010;48.200;16.332;2023-01-10T06:28:11;2.15;;;1.95;;
13879;SDS011;7010;48.200;16.332;2023-01-10T06:30:41;1.40;;;1.30;;
13879;SDS011;7010;48.200;16.332;2023-01-10T06:33:10;2.72;;;2.22;;
13879;SDS011;7010;48.200;16.332;2023-01-10T06:35:38;1.92;;;1.65;;
13879;SDS011;7010;48.200;16.332;2023-01-10T06:38:06;1.50;;;1.40;;
13879;SDS011;7010;48.200;16.332;2023-01-10T06:40:35;1.80;;;1.70;;
13879;SDS011;7010;48.200;16.332;2023-01-10T06:43:05;2.05;;;1.92;;
13879;SDS011;7010;48.200;16.332;2023-01-10T06:45:33;2.38;;;1.85;;
13879;SDS011;7010;48.200;16.332;2023-01-10T06:48:01;2.97;;;1.50;;
13879;SDS011;7010;48.200;16.332;2023-01-10T06:50:29;2.15;;;1.95;;
13879;SDS011;7010;48.200;16.332;2023-01-10T06:52:58;2.80;;;1.80;;
13879;SDS011;7010;48.200;16.332;2023-01-10T06:55:28;2.47;;;2.28;;
13879;SDS011;7010;48.200;16.332;2023-01-10T06:57:58;1.60;;;1.50;;
13879;SDS011;7010;48.200;16.332;2023-01-10T07:00:29;2.15;;;1.92;;
13879;SDS011;7010;48.200;16.332;2023-01-10T07:02:58;1.95;;;1.85;;
13879;SDS011;7010;48.200;16.332;2023-01-10T07:05:27;2.40;;;2.20;;
13879;SDS011;7010;48.200;16.332;2023-01-10T07:07:56;1.83;;;1.73;;
13879;SDS011;7010;48.200;16.332;2023-01-10T07:10:26;1.80;;;1.70;;
13879;SDS011;7010;48.200;16.332;2023-01-10T07:12:55;1.83;;;1.73;;
13879;SDS011;7010;48.200;16.332;2023-01-10T07:15:24;2.20;;;2.00;;
13879;SDS011;7010;48.200;16.332;2023-01-10T07:17:56;2.30;;;2.10;;
13879;SDS011;7010;48.200;16.332;2023-01-10T07:20:24;3.13;;;2.72;;
13879;SDS011;7010;48.200;16.332;2023-01-10T07:22:53;5.28;;;2.08;;
13879;SDS011;7010;48.200;16.332;2023-01-10T07:25:22;2.00;;;1.90;;
13879;SDS011;7010;48.200;16.332;2023-01-10T07:27:50;2.45;;;2.25;;
13879;SDS011;7010;48.200;16.332;2023-01-10T07:30:20;2.05;;;1.63;;
13879;SDS011;7010;48.200;16.332;2023-01-10T07:32:53;2.47;;;2.28;;
13879;SDS011;7010;48.200;16.332;2023-01-10T07:35:23;1.80;;;1.70;;
13879;SDS011;7010;48.200;16.332;2023-01-10T07:37:52;1.95;;;1.83;;
13879;SDS011;7010;48.200;16.332;2023-01-10T07:40:20;2.03;;;1.92;;
13879;SDS011;7010;48.200;16.332;2023-01-10T07:42:48;3.03;;;1.95;;
13879;SDS011;7010;48.200;16.332;2023-01-10T07:45:17;1.77;;;1.67;;
13879;SDS011;7010;48.200;16.332;2023-01-10T07:47:45;2.65;;;2.35;;
13879;SDS011;7010;48.200;16.332;2023-01-10T07:50:15;1.60;;;1.50;;
13879;SDS011;7010;48.200;16.332;2023-01-10T07:52:43;1.75;;;1.65;;
13879;SDS011;7010;48.200;16.332;2023-01-10T07:55:12;2.15;;;2.05;;
13879;SDS011;7010;48.200;16.332;2023-01-10T07:57:40;3.83;;;2.15;;
13879;SDS011;7010;48.200;16.332;2023-01-10T08:00:10;2.38;;;1.77;;
13879;SDS011;7010;48.200;16.332;2023-01-10T08:02:39;2.58;;;1.63;;
13879;SDS011;7010;48.200;16.332;2023-01-10T08:05:07;2.35;;;2.15;;
13879;SDS011;7010;48.200;16.332;2023-01-10T08:07:37;2.15;;;2.05;;
13879;SDS011;7010;48.200;16.332;2023-01-10T08:10:06;2.08;;;1.65;;
13879;SDS011;7010;48.200;16.332;2023-01-10T08:12:35;1.98;;;1.73;;
13879;SDS011;7010;48.200;16.332;2023-01-10T08:15:04;2.20;;;2.00;;
13879;SDS011;7010;48.200;16.332;2023-01-10T08:17:33;2.53;;;2.30;;
13879;SDS011;7010;48.200;16.332;2023-01-10T08:20:02;1.90;;;1.80;;
13879;SDS011;7010;48.200;16.332;2023-01-10T08:22:30;2.72;;;2.30;;
13879;SDS011;7010;48.200;16.332;2023-01-10T08:25:00;1.95;;;1.80;;
13879;SDS011;7010;48.200;16.332;2023-01-10T08:27:28;1.65;;;1.55;;
13879;SDS011;7010;48.200;16.332;2023-01-10T08:29:56;2.65;;;2.40;;
13879;SDS011;7010;48.200;16.332;2023-01-10T08:32:25;1.80;;;1.70;;
13879;SDS011;7010;48.200;16.332;2023-01-10T08:34:53;3.80;;;2.17;;
13879;SDS011;7010;48.200;16.332;2023-01-10T08:37:21;1.70;;;1.60;;
13879;SDS011;7010;48.200;16.332;2023-01-10T08:39:49;2.60;;;2.33;;
13879;SDS011;7010;48.200;16.332;2023-01-10T08:42:19;2.75;;;2.53;;
13879;SDS011;7010;48.200;16.332;2023-01-10T08:44:47;2.30;;;2.08;;
13879;SDS011;7010;48.200;16.332;2023-01-10T08:47:16;2.67;;;2.47;;
13879;SDS011;7010;48.200;16.332;2023-01-10T08:49:45;4.05;;;2.97;;
13879;SDS011;7010;48.200;16.332;2023-01-10T08:52:15;2.38;;;2.15;;
13879;SDS011;7010;48.200;16.332;2023-01-10T08:54:43;2.15;;;2.00;;
13879;SDS011;7010;48.200;16.332;2023-01-10T08:57:11;1.92;;;1.83;;
13879;SDS011;7010;48.200;16.332;2023-01-10T08:59:41;1.92;;;1.83;;
13879;SDS011;7010;48.200;16.332;2023-01-10T09:02:10;2.85;;;2.42;;
13879;SDS011;7010;48.200;16.332;2023-01-10T09:04:39;3.17;;;2.30;;
13879;SDS011;7010;48.200;16.332;2023-01-10T09:07:07;1.98;;;1.65;;
13879;SDS011;7010;48.200;16.332;2023-01-10T09:09:36;1.67;;;1.58;;
13879;SDS011;7010;48.200;16.332;2023-01-10T09:12:04;2.13;;;1.95;;
13879;SDS011;7010;48.200;16.332;2023-01-10T09:14:54;1.88;;;1.77;;
13879;SDS011;7010;48.200;16.332;2023-01-10T09:17:22;2.90;;;2.60;;
13879;SDS011;7010;48.200;16.332;2023-01-10T09:19:51;2.30;;;2.10;;
13879;SDS011;7010;48.200;16.332;2023-01-10T09:22:21;2.97;;;2.67;;
13879;SDS011;7010;48.200;16.332;2023-01-10T09:24:49;2.75;;;2.55;;
13879;SDS011;7010;48.200;16.332;2023-01-10T09:27:18;3.85;;;3.47;;
13879;SDS011;7010;48.200;16.332;2023-01-10T09:29:46;2.15;;;1.98;;
13879;SDS011;7010;48.200;16.332;2023-01-10T09:32:15;2.78;;;2.58;;
13879;SDS011;7010;48.200;16.332;2023-01-10T09:34:45;2.33;;;2.13;;
13879;SDS011;7010;48.200;16.332;2023-01-10T09:37:13;2.05;;;1.92;;
13879;SDS011;7010;48.200;16.332;2023-01-10T09:39:41;2.38;;;1.88;;
13879;SDS011;7010;48.200;16.332;2023-01-10T09:42:13;3.45;;;2.00;;
13879;SDS011;7010;48.200;16.332;2023-01-10T09:44:57;2.40;;;1.98;;
13879;SDS011;7010;48.200;16.332;2023-01-10T09:47:36;2.80;;;1.75;;
13879;SDS011;7010;48.200;16.332;2023-01-10T09:50:10;2.10;;;1.90;;
13879;SDS011;7010;48.200;16.332;2023-01-10T09:52:46;3.30;;;1.92;;
13879;SDS011;7010;48.200;16.332;2023-01-10T09:55:20;3.33;;;1.98;;
13879;SDS011;7010;48.200;16.332;2023-01-10T09:57:52;1.95;;;1.85;;
13879;SDS011;7010;48.200;16.332;2023-01-10T10:00:23;1.98;;;1.88;;
13879;SDS011;7010;48.200;16.332;2023-01-10T10:03:02;1.38;;;1.27;;
13879;SDS011;7010;48.200;16.332;2023-01-10T10:05:37;3.55;;;2.15;;
13879;SDS011;7010;48.200;16.332;2023-01-10T10:08:07;2.28;;;2.10;;
13879;SDS011;7010;48.200;16.332;2023-01-10T10:10:48;1.58;;;1.48;;
13879;SDS011;7010;48.200;16.332;2023-01-10T10:13:26;1.60;;;1.50;;
13879;SDS011;7010;48.200;16.332;2023-01-10T10:16:07;1.92;;;1.75;;
13879;SDS011;7010;48.200;16.332;2023-01-10T10:18:43;1.83;;;1.73;;
13879;SDS011;7010;48.200;16.332;2023-01-10T10:21:22;2.30;;;2.05;;
13879;SDS011;7010;48.200;16.332;2023-01-10T10:24:08;2.67;;;2.13;;
13879;SDS011;7010;48.200;16.332;2023-01-10T10:26:48;2.30;;;2.10;;
13879;SDS011;7010;48.200;16.332;2023-01-10T10:29:31;2.90;;;2.50;;
13879;SDS011;7010;48.200;16.332;2023-01-10T10:35:06;2.65;;;2.45;;
13879;SDS011;7010;48.200;16.332;2023-01-10T10:37:40;3.25;;;2.38;;
13879;SDS011;7010;48.200;16.332;2023-01-10T10:40:15;2.40;;;2.13;;
13879;SDS011;7010;48.200;16.332;2023-01-10T10:42:46;3.85;;;2.22;;
13879;SDS011;7010;48.200;16.332;2023-01-10T10:45:18;1.88;;;1.77;;
13879;SDS011;7010;48.200;16.332;2023-01-10T10:47:52;2.08;;;1.65;;
13879;SDS011;7010;48.200;16.332;2023-01-10T10:50:29;2.88;;;2.00;;
13879;SDS011;7010;48.200;16.332;2023-01-10T10:52:59;2.17;;;2.00;;
13879;SDS011;7010;48.200;16.332;2023-01-10T10:55:30;2.53;;;2.28;;
13879;SDS011;7010;48.200;16.332;2023-01-10T10:58:01;1.95;;;1.75;;
13879;SDS011;7010;48.200;16.332;2023-01-10T11:00:30;1.67;;;1.52;;
13879;SDS011;7010;48.200;16.332;2023-01-10T11:02:59;2.35;;;2.15;;
13879;SDS011;7010;48.200;16.332;2023-01-10T11:05:35;2.33;;;2.00;;
13879;SDS011;7010;48.200;16.332;2023-01-10T11:08:07;2.22;;;1.77;;
13879;SDS011;7010;48.200;16.332;2023-01-10T11:10:37;1.50;;;1.40;;
13879;SDS011;7010;48.200;16.332;2023-01-10T11:13:12;2.15;;;1.95;;
13879;SDS011;7010;48.200;16.332;2023-01-10T11:15:45;2.22;;;1.90;;
13879;SDS011;7010;48.200;16.332;2023-01-10T11:18:15;2.03;;;1.65;;
13879;SDS011;7010;48.200;16.332;2023-01-10T11:20:48;1.73;;;1.63;;
13879;SDS011;7010;48.200;16.332;2023-01-10T11:23:23;2.17;;;1.95;;
13879;SDS011;7010;48.200;16.332;2023-01-10T11:26:03;1.77;;;1.52;;
13879;SDS011;7010;48.200;16.332;2023-01-10T11:28:33;4.65;;;2.08;;
13879;SDS011;7010;48.200;16.332;2023-01-10T11:31:03;2.67;;;1.60;;
13879;SDS011;7010;48.200;16.332;2023-01-10T11:33:32;1.75;;;1.65;;
13879;SDS011;7010;48.200;16.332;2023-01-10T11:36:04;1.83;;;1.58;;
13879;SDS011;7010;48.200;16.332;2023-01-10T11:38:34;1.67;;;1.58;;
13879;SDS011;7010;48.200;16.332;2023-01-10T11:41:03;1.50;;;1.40;;
13879;SDS011;7010;48.200;16.332;2023-01-10T11:43:33;1.52;;;1.42;;
13879;SDS011;7010;48.200;16.332;2023-01-10T11:46:03;2.17;;;1.50;;
13879;SDS011;7010;48.200;16.332;2023-01-10T11:48:38;2.25;;;2.05;;
13879;SDS011;7010;48.200;16.332;2023-01-10T11:51:32;1.58;;;1.48;;
13879;SDS011;7010;48.200;16.332;2023-01-10T11:54:04;1.52;;;1.42;;
13879;SDS011;7010;48.200;16.332;2023-01-10T11:56:37;1.95;;;1.70;;
13879;SDS011;7010;48.200;16.332;2023-01-10T11:59:07;1.27;;;1.17;;
13879;SDS011;7010;48.200;16.332;2023-01-10T12:01:38;5.80;;;2.10;;
13879;SDS011;7010;48.200;16.332;2023-01-10T12:04:12;1.63;;;1.52;;
13879;SDS011;7010;48.200;16.332;2023-01-10T12:06:43;1.77;;;1.67;;
13879;SDS011;7010;48.200;16.332;2023-01-10T12:12:15;1.50;;;1.40;;
13879;SDS011;7010;48.200;16.332;2023-01-10T12:14:45;1.30;;;1.20;;
13879;SDS011;7010;48.200;16.332;2023-01-10T12:17:19;0.98;;;0.88;;
13879;SDS011;7010;48.200;16.332;2023-01-10T12:19:52;1.45;;;1.33;;
13879;SDS011;7010;48.200;16.332;2023-01-10T12:22:26;1.67;;;1.38;;
13879;SDS011;7010;48.200;16.332;2023-01-10T12:24:57;1.48;;;1.38;;
13879;SDS011;7010;48.200;16.332;2023-01-10T12:27:27;1.38;;;1.38;;
13879;SDS011;7010;48.200;16.332;2023-01-10T12:30:00;1.67;;;1.48;;
13879;SDS011;7010;48.200;16.332;2023-01-10T12:32:32;1.10;;;1.10;;
13879;SDS011;7010;48.200;16.332;2023-01-10T12:35:09;1.35;;;1.25;;
13879;SDS011;7010;48.200;16.332;2023-01-10T12:37:46;1.50;;;1.40;;
13879;SDS011;7010;48.200;16.332;2023-01-10T12:40:18;1.00;;;0.98;;
13879;SDS011;7010;48.200;16.332;2023-01-10T12:42:52;1.48;;;1.38;;
13879;SDS011;7010;48.200;16.332;2023-01-10T12:45:43;1.15;;;1.15;;
13879;SDS011;7010;48.200;16.332;2023-01-10T12:48:16;1.58;;;1.48;;
13879;SDS011;7010;48.200;16.332;2023-01-10T12:50:51;1.48;;;1.38;;
13879;SDS011;7010;48.200;16.332;2023-01-10T12:53:29;9.70;;;1.63;;
13879;SDS011;7010;48.200;16.332;2023-01-10T12:56:01;1.45;;;1.35;;
13879;SDS011;7010;48.200;16.332;2023-01-10T12:58:38;1.20;;;1.10;;
13879;SDS011;7010;48.200;16.332;2023-01-10T13:01:09;1.55;;;1.38;;
13879;SDS011;7010;48.200;16.332;2023-01-10T13:03:41;1.63;;;1.42;;
13879;SDS011;7010;48.200;16.332;2023-01-10T13:06:12;1.25;;;1.20;;
13879;SDS011;7010;48.200;16.332;2023-01-10T13:08:48;3.65;;;1.17;;
13879;SDS011;7010;48.200;16.332;2023-01-10T13:11:17;1.38;;;1.27;;
13879;SDS011;7010;48.200;16.332;2023-01-10T13:13:48;4.28;;;1.77;;
13879;SDS011;7010;48.200;16.332;2023-01-10T13:16:26;1.27;;;1.20;;
13879;SDS011;7010;48.200;16.332;2023-01-10T13:19:03;1.38;;;1.27;;
13879;SDS011;7010;48.200;16.332;2023-01-10T13:21:49;1.13;;;1.13;;
13879;SDS011;7010;48.200;16.332;2023-01-10T13:24:20;5.57;;;1.92;;
13879;SDS011;7010;48.200;16.332;2023-01-10T13:26:52;1.45;;;1.35;;
13879;SDS011;7010;48.200;16.332;2023-01-10T13:29:22;2.65;;;1.45;;
13879;SDS011;7010;48.200;16.332;2023-01-10T13:31:59;1.40;;;1.30;;
13879;SDS011;7010;48.200;16.332;2023-01-10T13:34:31;2.60;;;1.70;;
13879;SDS011;7010;48.200;16.332;2023-01-10T13:37:01;1.10;;;1.10;;
13879;SDS011;7010;48.200;16.332;2023-01-10T13:39:38;1.40;;;1.25;;
13879;SDS011;7010;48.200;16.332;2023-01-10T13:42:21;1.20;;;1.10;;
13879;SDS011;7010;48.200;16.332;2023-01-10T13:45:25;1.13;;;1.05;;
13879;SDS011;7010;48.200;16.332;2023-01-10T13:48:01;1.50;;;1.40;;
13879;SDS011;7010;48.200;16.332;2023-01-10T13:53:50;6.03;;;1.10;;
13879;SDS011;7010;48.200;16.332;2023-01-10T13:56:31;0.90;;;0.90;;
13879;SDS011;7010;48.200;16.332;2023-01-10T13:59:02;1.50;;;1.40;;
13879;SDS011;7010;48.200;16.332;2023-01-10T14:01:49;2.55;;;1.38;;
13879;SDS011;7010;48.200;16.332;2023-01-10T14:04:37;18.73;;;1.20;;
13879;SDS011;7010;48.200;16.332;2023-01-10T14:07:12;1.27;;;1.17;;
13879;SDS011;7010;48.200;16.332;2023-01-10T14:09:47;1.27;;;1.20;;
13879;SDS011;7010;48.200;16.332;2023-01-10T14:12:23;4.07;;;1.90;;
13879;SDS011;7010;48.200;16.332;2023-01-10T14:14:56;1.40;;;1.30;;
13879;SDS011;7010;48.200;16.332;2023-01-10T14:17:27;1.33;;;1.17;;
13879;SDS011;7010;48.200;16.332;2023-01-10T14:20:00;1.55;;;1.35;;
13879;SDS011;7010;48.200;16.332;2023-01-10T14:22:32;1.50;;;1.10;;
13879;SDS011;7010;48.200;16.332;2023-01-10T14:25:03;2.15;;;1.20;;
13879;SDS011;7010;48.200;16.332;2023-01-10T14:27:42;1.10;;;1.10;;
13879;SDS011;7010;48.200;16.332;2023-01-10T14:30:16;1.65;;;1.30;;
13879;SDS011;7010;48.200;16.332;2023-01-10T14:32:48;1.50;;;1.40;;
13879;SDS011;7010;48.200;16.332;2023-01-10T14:35:21;1.50;;;1.40;;
13879;SDS011;7010;48.200;16.332;2023-01-10T14:37:55;1.83;;;1.73;;
13879;SDS011;7010;48.200;16.332;2023-01-10T14:40:25;1.90;;;1.55;;
13879;SDS011;7010;48.200;16.332;2023-01-10T14:43:01;1.02;;;1.02;;
13879;SDS011;7010;48.200;16.332;2023-01-10T14:45:35;1.25;;;1.15;;
13879;SDS011;7010;48.200;16.332;2023-01-10T14:48:26;1.63;;;1.42;;
13879;SDS011;7010;48.200;16.332;2023-01-10T14:51:09;2.30;;;1.35;;
13879;SDS011;7010;48.200;16.332;2023-01-10T14:53:46;1.55;;;1.45;;
13879;SDS011;7010;48.200;16.332;2023-01-10T14:56:22;1.00;;;1.00;;
13879;SDS011;7010;48.200;16.332;2023-01-10T14:58:53;1.85;;;1.20;;
13879;SDS011;7010;48.200;16.332;2023-01-10T15:01:22;0.70;;;0.70;;
13879;SDS011;7010;48.200;16.332;2023-01-10T15:03:53;1.20;;;1.20;;
13879;SDS011;7010;48.200;16.332;2023-01-10T15:06:22;1.15;;;1.08;;
13879;SDS011;7010;48.200;16.332;2023-01-10T15:08:54;3.90;;;1.38;;
13879;SDS011;7010;48.200;16.332;2023-01-10T15:11:24;1.60;;;1.50;;
13879;SDS011;7010;48.200;16.332;2023-01-10T15:13:56;1.25;;;1.15;;
13879;SDS011;7010;48.200;16.332;2023-01-10T15:16:29;1.55;;;1.15;;
13879;SDS011;7010;48.200;16.332;2023-01-10T15:18:58;1.45;;;1.35;;
13879;SDS011;7010;48.200;16.332;2023-01-10T15:21:27;1.10;;;1.05;;
13879;SDS011;7010;48.200;16.332;2023-01-10T15:23:55;3.80;;;1.52;;
13879;SDS011;7010;48.200;16.332;2023-01-10T15:26:25;1.42;;;1.33;;
13879;SDS011;7010;48.200;16.332;2023-01-10T15:29:05;1.10;;;1.10;;
13879;SDS011;7010;48.200;16.332;2023-01-10T15:31:38;2.83;;;1.70;;
13879;SDS011;7010;48.200;16.332;2023-01-10T15:34:08;1.20;;;1.15;;
13879;SDS011;7010;48.200;16.332;2023-01-10T15:36:41;1.98;;;1.10;;